sensor_id;sensor_type;location;lat;lon;timestamp;P1;durP1;ratioP1;P2;durP2;ratioP2
5295;SDS011;2670;42.720;23.336;2023-07-13T00:01:35;9.30;;;6.53;;
5295;SDS011;2670;42.720;23.336;2023-07-13T00:04:03;10.53;;;6.50;;
5295;SDS011;2670;42.720;23.336;2023-07-13T00:06:31;13.73;;;6.93;;
5295;SDS011;2670;42.720;23.336;2023-07-13T00:08:58;15.50;;;7.20;;
5295;SDS011;2670;42.720;23.336;2023-07-13T00:11:24;12.90;;;6.33;;
5295;SDS011;2670;42.720;23.336;2023-07-13T00:13:51;10.20;;;7.37;;
5295;SDS011;2670;42.720;23.336;2023-07-13T00:16:18;9.43;;;6.53;;
5295;SDS011;2670;42.720;23.336;2023-07-13T00:18:46;12.63;;;7.27;;
5295;SDS011;2670;42.720;23.336;2023-07-13T00:21:13;12.57;;;8.00;;
5295;SDS011;2670;42.720;23.336;2023-07-13T00:23:41;9.83;;;7.47;;
5295;SDS011;2670;42.720;23.336;2023-07-13T00:26:09;13.47;;;8.17;;
5295;SDS011;2670;42.720;23.336;2023-07-13T00:28:37;13.27;;;6.80;;
5295;SDS011;2670;42.720;23.336;2023-07-13T00:31:05;11.20;;;7.00;;
5295;SDS011;2670;42.720;23.336;2023-07-13T00:33:32;17.63;;;7.33;;
5295;SDS011;2670;42.720;23.336;2023-07-13T00:36:00;15.80;;;7.77;;
5295;SDS011;2670;42.720;23.336;2023-07-13T00:38:27;13.00;;;6.83;;
5295;SDS011;2670;42.720;23.336;2023-07-13T00:40:54;10.70;;;6.80;;
5295;SDS011;2670;42.720;23.336;2023-07-13T00:43:21;8.80;;;6.27;;
5295;SDS011;2670;42.720;23.336;2023-07-13T00:48:40;10.33;;;7.00;;
5295;SDS011;2670;42.720;23.336;2023-07-13T00:51:10;10.63;;;7.40;;
5295;SDS011;2670;42.720;23.336;2023-07-13T00:53:38;12.77;;;7.77;;
5295;SDS011;2670;42.720;23.336;2023-07-13T00:56:05;9.97;;;7.40;;
5295;SDS011;2670;42.720;23.336;2023-07-13T00:58:32;11.00;;;8.30;;
5295;SDS011;2670;42.720;23.336;2023-07-13T01:01:00;11.90;;;7.60;;
5295;SDS011;2670;42.720;23.336;2023-07-13T01:03:27;15.47;;;6.43;;
5295;SDS011;2670;42.720;23.336;2023-07-13T01:05:54;12.60;;;7.67;;
5295;SDS011;2670;42.720;23.336;2023-07-13T01:08:23;10.20;;;6.83;;
5295;SDS011;2670;42.720;23.336;2023-07-13T01:10:53;11.43;;;7.67;;
5295;SDS011;2670;42.720;23.336;2023-07-13T01:13:21;9.03;;;6.93;;
5295;SDS011;2670;42.720;23.336;2023-07-13T01:15:49;10.60;;;7.63;;
5295;SDS011;2670;42.720;23.336;2023-07-13T01:18:18;13.10;;;7.43;;
5295;SDS011;2670;42.720;23.336;2023-07-13T01:20:50;11.27;;;7.93;;
5295;SDS011;2670;42.720;23.336;2023-07-13T01:23:18;11.80;;;6.13;;
5295;SDS011;2670;42.720;23.336;2023-07-13T01:25:46;10.03;;;7.37;;
5295;SDS011;2670;42.720;23.336;2023-07-13T01:28:13;13.27;;;8.00;;
5295;SDS011;2670;42.720;23.336;2023-07-13T01:30:42;10.10;;;6.50;;
5295;SDS011;2670;42.720;23.336;2023-07-13T01:33:11;11.13;;;7.00;;
5295;SDS011;2670;42.720;23.336;2023-07-13T01:35:39;13.60;;;7.20;;
5295;SDS011;2670;42.720;23.336;2023-07-13T01:38:07;10.67;;;7.23;;
5295;SDS011;2670;42.720;23.336;2023-07-13T01:40:35;8.67;;;6.77;;
5295;SDS011;2670;42.720;23.336;2023-07-13T01:43:03;17.60;;;7.67;;
5295;SDS011;2670;42.720;23.336;2023-07-13T01:45:30;9.17;;;7.03;;
5295;SDS011;2670;42.720;23.336;2023-07-13T01:47:57;10.20;;;7.50;;
5295;SDS011;2670;42.720;23.336;2023-07-13T01:50:24;10.40;;;8.53;;
5295;SDS011;2670;42.720;23.336;2023-07-13T01:52:51;13.13;;;7.00;;
5295;SDS011;2670;42.720;23.336;2023-07-13T01:55:19;15.40;;;7.80;;
5295;SDS011;2670;42.720;23.336;2023-07-13T01:57:47;13.83;;;7.53;;
5295;SDS011;2670;42.720;23.336;2023-07-13T02:00:14;10.53;;;7.40;;
5295;SDS011;2670;42.720;23.336;2023-07-13T02:02:41;15.00;;;6.60;;
5295;SDS011;2670;42.720;23.336;2023-07-13T02:05:09;15.20;;;6.10;;
5295;SDS011;2670;42.720;23.336;2023-07-13T02:07:36;11.33;;;7.53;;
5295;SDS011;2670;42.720;23.336;2023-07-13T02:10:03;11.73;;;7.90;;
5295;SDS011;2670;42.720;23.336;2023-07-13T02:12:32;10.60;;;7.23;;
5295;SDS011;2670;42.720;23.336;2023-07-13T02:14:59;9.60;;;7.00;;
5295;SDS011;2670;42.720;23.336;2023-07-13T02:17:26;10.50;;;7.43;;
5295;SDS011;2670;42.720;23.336;2023-07-13T02:19:53;10.70;;;8.17;;
5295;SDS011;2670;42.720;23.336;2023-07-13T02:22:20;18.37;;;7.97;;
5295;SDS011;2670;42.720;23.336;2023-07-13T02:24:47;8.60;;;6.90;;
5295;SDS011;2670;42.720;23.336;2023-07-13T02:27:13;11.30;;;8.40;;
5295;SDS011;2670;42.720;23.336;2023-07-13T02:29:41;13.03;;;8.57;;
5295;SDS011;2670;42.720;23.336;2023-07-13T02:32:08;13.63;;;9.77;;
5295;SDS011;2670;42.720;23.336;2023-07-13T02:34:35;10.73;;;8.60;;
5295;SDS011;2670;42.720;23.336;2023-07-13T02:37:02;11.90;;;7.67;;
5295;SDS011;2670;42.720;23.336;2023-07-13T02:39:29;16.60;;;8.43;;
5295;SDS011;2670;42.720;23.336;2023-07-13T02:41:58;13.30;;;8.17;;
5295;SDS011;2670;42.720;23.336;2023-07-13T02:44:24;10.37;;;7.90;;
5295;SDS011;2670;42.720;23.336;2023-07-13T02:46:53;10.93;;;8.40;;
5295;SDS011;2670;42.720;23.336;2023-07-13T02:49:20;10.77;;;7.67;;
5295;SDS011;2670;42.720;23.336;2023-07-13T02:51:46;14.53;;;8.10;;
5295;SDS011;2670;42.720;23.336;2023-07-13T02:54:13;12.40;;;8.10;;
5295;SDS011;2670;42.720;23.336;2023-07-13T02:56:40;12.90;;;7.33;;
5295;SDS011;2670;42.720;23.336;2023-07-13T02:59:08;9.27;;;7.87;;
5295;SDS011;2670;42.720;23.336;2023-07-13T03:01:35;15.73;;;7.87;;
5295;SDS011;2670;42.720;23.336;2023-07-13T03:04:03;11.00;;;8.07;;
5295;SDS011;2670;42.720;23.336;2023-07-13T03:06:30;13.57;;;7.73;;
5295;SDS011;2670;42.720;23.336;2023-07-13T03:08:57;12.17;;;8.00;;
5295;SDS011;2670;42.720;23.336;2023-07-13T03:11:25;11.53;;;7.43;;
5295;SDS011;2670;42.720;23.336;2023-07-13T03:13:52;8.70;;;7.23;;
5295;SDS011;2670;42.720;23.336;2023-07-13T03:16:19;11.77;;;7.37;;
5295;SDS011;2670;42.720;23.336;2023-07-13T03:18:46;14.47;;;7.60;;
5295;SDS011;2670;42.720;23.336;2023-07-13T03:21:15;12.03;;;7.40;;
5295;SDS011;2670;42.720;23.336;2023-07-13T03:23:43;10.57;;;7.30;;
5295;SDS011;2670;42.720;23.336;2023-07-13T03:26:10;14.27;;;7.80;;
5295;SDS011;2670;42.720;23.336;2023-07-13T03:28:39;12.50;;;7.73;;
5295;SDS011;2670;42.720;23.336;2023-07-13T03:31:07;9.30;;;7.00;;
5295;SDS011;2670;42.720;23.336;2023-07-13T03:33:36;13.37;;;7.67;;
5295;SDS011;2670;42.720;23.336;2023-07-13T03:36:04;15.73;;;8.60;;
5295;SDS011;2670;42.720;23.336;2023-07-13T03:38:34;9.73;;;7.40;;
5295;SDS011;2670;42.720;23.336;2023-07-13T03:41:01;11.03;;;7.57;;
5295;SDS011;2670;42.720;23.336;2023-07-13T03:43:28;13.07;;;7.57;;
5295;SDS011;2670;42.720;23.336;2023-07-13T03:45:55;11.97;;;8.00;;
5295;SDS011;2670;42.720;23.336;2023-07-13T03:48:21;16.47;;;8.33;;
5295;SDS011;2670;42.720;23.336;2023-07-13T03:50:48;19.80;;;8.17;;
5295;SDS011;2670;42.720;23.336;2023-07-13T03:53:15;11.97;;;7.80;;
5295;SDS011;2670;42.720;23.336;2023-07-13T03:55:44;19.60;;;8.23;;
5295;SDS011;2670;42.720;23.336;2023-07-13T03:58:25;10.90;;;7.93;;
5295;SDS011;2670;42.720;23.336;2023-07-13T04:00:54;14.37;;;7.80;;
5295;SDS011;2670;42.720;23.336;2023-07-13T04:03:21;16.33;;;8.10;;
5295;SDS011;2670;42.720;23.336;2023-07-13T04:05:48;13.30;;;8.20;;
5295;SDS011;2670;42.720;23.336;2023-07-13T04:08:15;15.33;;;8.57;;
5295;SDS011;2670;42.720;23.336;2023-07-13T04:10:42;14.23;;;9.07;;
5295;SDS011;2670;42.720;23.336;2023-07-13T04:13:11;14.90;;;8.30;;
5295;SDS011;2670;42.720;23.336;2023-07-13T04:15:38;16.80;;;8.20;;
5295;SDS011;2670;42.720;23.336;2023-07-13T04:18:05;14.13;;;8.77;;
5295;SDS011;2670;42.720;23.336;2023-07-13T04:20:32;12.10;;;8.73;;
5295;SDS011;2670;42.720;23.336;2023-07-13T04:22:58;15.43;;;8.80;;
5295;SDS011;2670;42.720;23.336;2023-07-13T04:25:25;20.80;;;9.47;;
5295;SDS011;2670;42.720;23.336;2023-07-13T04:27:53;19.63;;;8.97;;
5295;SDS011;2670;42.720;23.336;2023-07-13T04:30:21;17.83;;;8.47;;
5295;SDS011;2670;42.720;23.336;2023-07-13T04:32:49;16.40;;;8.13;;
5295;SDS011;2670;42.720;23.336;2023-07-13T04:35:17;14.67;;;8.50;;
5295;SDS011;2670;42.720;23.336;2023-07-13T04:37:45;13.43;;;8.00;;
5295;SDS011;2670;42.720;23.336;2023-07-13T04:40:12;12.47;;;8.90;;
5295;SDS011;2670;42.720;23.336;2023-07-13T04:42:39;13.17;;;8.73;;
5295;SDS011;2670;42.720;23.336;2023-07-13T04:45:06;16.27;;;9.77;;
5295;SDS011;2670;42.720;23.336;2023-07-13T04:47:35;11.93;;;9.10;;
5295;SDS011;2670;42.720;23.336;2023-07-13T04:50:02;19.87;;;8.77;;
5295;SDS011;2670;42.720;23.336;2023-07-13T04:52:29;19.40;;;9.07;;
5295;SDS011;2670;42.720;23.336;2023-07-13T04:54:58;12.37;;;8.00;;
5295;SDS011;2670;42.720;23.336;2023-07-13T04:57:25;28.20;;;10.03;;
5295;SDS011;2670;42.720;23.336;2023-07-13T04:59:52;16.00;;;9.70;;
5295;SDS011;2670;42.720;23.336;2023-07-13T05:02:20;13.93;;;9.93;;
5295;SDS011;2670;42.720;23.336;2023-07-13T05:04:48;18.07;;;12.53;;
5295;SDS011;2670;42.720;23.336;2023-07-13T05:07:15;18.47;;;12.70;;
5295;SDS011;2670;42.720;23.336;2023-07-13T05:09:42;18.07;;;13.73;;
5295;SDS011;2670;42.720;23.336;2023-07-13T05:12:09;17.10;;;10.80;;
5295;SDS011;2670;42.720;23.336;2023-07-13T05:14:36;14.80;;;10.27;;
5295;SDS011;2670;42.720;23.336;2023-07-13T05:17:03;17.83;;;9.77;;
5295;SDS011;2670;42.720;23.336;2023-07-13T05:19:30;22.40;;;11.50;;
5295;SDS011;2670;42.720;23.336;2023-07-13T05:21:58;20.00;;;11.60;;
5295;SDS011;2670;42.720;23.336;2023-07-13T05:24:25;19.90;;;10.70;;
5295;SDS011;2670;42.720;23.336;2023-07-13T05:26:52;16.33;;;9.73;;
5295;SDS011;2670;42.720;23.336;2023-07-13T05:29:19;26.70;;;11.07;;
5295;SDS011;2670;42.720;23.336;2023-07-13T05:31:46;16.33;;;9.53;;
5295;SDS011;2670;42.720;23.336;2023-07-13T05:34:13;19.10;;;9.90;;
5295;SDS011;2670;42.720;23.336;2023-07-13T05:36:40;21.33;;;8.83;;
5295;SDS011;2670;42.720;23.336;2023-07-13T05:39:08;15.43;;;9.70;;
5295;SDS011;2670;42.720;23.336;2023-07-13T05:41:36;18.53;;;9.53;;
5295;SDS011;2670;42.720;23.336;2023-07-13T05:44:03;14.23;;;9.73;;
5295;SDS011;2670;42.720;23.336;2023-07-13T05:46:30;14.90;;;9.27;;
5295;SDS011;2670;42.720;23.336;2023-07-13T05:48:57;20.83;;;9.93;;
5295;SDS011;2670;42.720;23.336;2023-07-13T05:51:23;16.47;;;10.07;;
5295;SDS011;2670;42.720;23.336;2023-07-13T05:53:50;14.43;;;8.93;;
5295;SDS011;2670;42.720;23.336;2023-07-13T05:56:18;14.10;;;9.17;;
5295;SDS011;2670;42.720;23.336;2023-07-13T05:58:45;14.57;;;9.00;;
5295;SDS011;2670;42.720;23.336;2023-07-13T06:01:14;20.87;;;9.10;;
5295;SDS011;2670;42.720;23.336;2023-07-13T06:03:42;14.27;;;9.90;;
5295;SDS011;2670;42.720;23.336;2023-07-13T06:06:09;15.60;;;8.50;;
5295;SDS011;2670;42.720;23.336;2023-07-13T06:08:37;11.90;;;8.70;;
5295;SDS011;2670;42.720;23.336;2023-07-13T06:11:03;11.60;;;8.60;;
5295;SDS011;2670;42.720;23.336;2023-07-13T06:13:33;14.10;;;9.10;;
5295;SDS011;2670;42.720;23.336;2023-07-13T06:16:00;13.00;;;9.43;;
5295;SDS011;2670;42.720;23.336;2023-07-13T06:18:29;15.53;;;10.20;;
5295;SDS011;2670;42.720;23.336;2023-07-13T06:20:59;14.60;;;9.57;;
5295;SDS011;2670;42.720;23.336;2023-07-13T06:23:25;16.90;;;10.10;;
5295;SDS011;2670;42.720;23.336;2023-07-13T06:25:52;22.70;;;11.10;;
5295;SDS011;2670;42.720;23.336;2023-07-13T06:28:19;22.50;;;10.40;;
5295;SDS011;2670;42.720;23.336;2023-07-13T06:30:47;18.47;;;10.20;;
5295;SDS011;2670;42.720;23.336;2023-07-13T06:33:14;18.93;;;9.80;;
5295;SDS011;2670;42.720;23.336;2023-07-13T06:35:40;19.90;;;10.93;;
5295;SDS011;2670;42.720;23.336;2023-07-13T06:38:07;21.43;;;10.20;;
5295;SDS011;2670;42.720;23.336;2023-07-13T06:40:34;26.60;;;9.80;;
5295;SDS011;2670;42.720;23.336;2023-07-13T06:43:01;16.90;;;11.80;;
5295;SDS011;2670;42.720;23.336;2023-07-13T06:45:28;22.93;;;13.07;;
5295;SDS011;2670;42.720;23.336;2023-07-13T06:47:56;22.90;;;13.30;;
5295;SDS011;2670;42.720;23.336;2023-07-13T06:50:22;18.97;;;12.27;;
5295;SDS011;2670;42.720;23.336;2023-07-13T06:52:49;22.33;;;11.60;;
5295;SDS011;2670;42.720;23.336;2023-07-13T06:55:16;18.30;;;10.20;;
5295;SDS011;2670;42.720;23.336;2023-07-13T06:57:43;24.70;;;11.20;;
5295;SDS011;2670;42.720;23.336;2023-07-13T07:00:10;20.00;;;11.30;;
5295;SDS011;2670;42.720;23.336;2023-07-13T07:02:37;20.93;;;11.03;;
5295;SDS011;2670;42.720;23.336;2023-07-13T07:05:06;22.63;;;11.40;;
5295;SDS011;2670;42.720;23.336;2023-07-13T07:07:33;17.73;;;10.87;;
5295;SDS011;2670;42.720;23.336;2023-07-13T07:10:00;15.07;;;10.83;;
5295;SDS011;2670;42.720;23.336;2023-07-13T07:12:28;20.10;;;11.80;;
5295;SDS011;2670;42.720;23.336;2023-07-13T07:14:55;14.90;;;9.70;;
5295;SDS011;2670;42.720;23.336;2023-07-13T07:17:22;13.97;;;10.20;;
5295;SDS011;2670;42.720;23.336;2023-07-13T07:19:48;16.50;;;9.53;;
5295;SDS011;2670;42.720;23.336;2023-07-13T07:22:17;19.87;;;11.10;;
5295;SDS011;2670;42.720;23.336;2023-07-13T07:24:43;14.17;;;10.13;;
5295;SDS011;2670;42.720;23.336;2023-07-13T07:27:10;27.33;;;11.03;;
5295;SDS011;2670;42.720;23.336;2023-07-13T07:29:37;19.50;;;10.20;;
5295;SDS011;2670;42.720;23.336;2023-07-13T07:32:04;17.73;;;10.13;;
5295;SDS011;2670;42.720;23.336;2023-07-13T07:34:31;18.53;;;10.50;;
5295;SDS011;2670;42.720;23.336;2023-07-13T07:36:58;13.57;;;9.77;;
5295;SDS011;2670;42.720;23.336;2023-07-13T07:39:27;17.73;;;9.60;;
5295;SDS011;2670;42.720;23.336;2023-07-13T07:41:54;12.77;;;8.73;;
5295;SDS011;2670;42.720;23.336;2023-07-13T07:44:20;17.13;;;10.27;;
5295;SDS011;2670;42.720;23.336;2023-07-13T07:46:47;16.17;;;9.60;;
5295;SDS011;2670;42.720;23.336;2023-07-13T07:49:14;20.40;;;9.57;;
5295;SDS011;2670;42.720;23.336;2023-07-13T07:51:41;15.60;;;9.17;;
5295;SDS011;2670;42.720;23.336;2023-07-13T07:54:08;19.93;;;10.40;;
5295;SDS011;2670;42.720;23.336;2023-07-13T07:56:36;20.83;;;9.70;;
5295;SDS011;2670;42.720;23.336;2023-07-13T07:59:03;15.00;;;9.30;;
5295;SDS011;2670;42.720;23.336;2023-07-13T08:01:29;14.60;;;9.80;;
5295;SDS011;2670;42.720;23.336;2023-07-13T08:03:56;17.07;;;10.50;;
5295;SDS011;2670;42.720;23.336;2023-07-13T08:06:23;28.23;;;9.70;;
5295;SDS011;2670;42.720;23.336;2023-07-13T08:08:50;16.70;;;10.40;;
5295;SDS011;2670;42.720;23.336;2023-07-13T08:11:17;23.40;;;11.00;;
5295;SDS011;2670;42.720;23.336;2023-07-13T08:13:45;18.20;;;9.03;;
5295;SDS011;2670;42.720;23.336;2023-07-13T08:16:11;14.17;;;9.27;;
5295;SDS011;2670;42.720;23.336;2023-07-13T08:18:38;15.47;;;9.40;;
5295;SDS011;2670;42.720;23.336;2023-07-13T08:21:05;15.83;;;8.97;;
5295;SDS011;2670;42.720;23.336;2023-07-13T08:23:32;14.00;;;9.50;;
5295;SDS011;2670;42.720;23.336;2023-07-13T08:25:59;17.17;;;8.97;;
5295;SDS011;2670;42.720;23.336;2023-07-13T08:28:26;17.73;;;9.23;;
5295;SDS011;2670;42.720;23.336;2023-07-13T08:30:55;13.83;;;8.57;;
5295;SDS011;2670;42.720;23.336;2023-07-13T08:33:27;15.53;;;8.63;;
5295;SDS011;2670;42.720;23.336;2023-07-13T08:35:53;15.30;;;9.10;;
5295;SDS011;2670;42.720;23.336;2023-07-13T08:38:20;16.40;;;9.20;;
5295;SDS011;2670;42.720;23.336;2023-07-13T08:40:53;12.80;;;8.63;;
5295;SDS011;2670;42.720;23.336;2023-07-13T08:43:23;12.77;;;8.33;;
5295;SDS011;2670;42.720;23.336;2023-07-13T08:45:53;14.33;;;8.17;;
5295;SDS011;2670;42.720;23.336;2023-07-13T08:48:26;12.20;;;9.30;;
5295;SDS011;2670;42.720;23.336;2023-07-13T08:50:57;14.00;;;8.60;;
5295;SDS011;2670;42.720;23.336;2023-07-13T08:53:30;13.47;;;9.10;;
5295;SDS011;2670;42.720;23.336;2023-07-13T08:56:00;17.43;;;8.93;;
5295;SDS011;2670;42.720;23.336;2023-07-13T08:58:28;14.23;;;8.90;;
5295;SDS011;2670;42.720;23.336;2023-07-13T09:00:58;17.20;;;7.90;;
5295;SDS011;2670;42.720;23.336;2023-07-13T09:03:33;17.83;;;9.33;;
5295;SDS011;2670;42.720;23.336;2023-07-13T09:06:06;17.47;;;8.10;;
5295;SDS011;2670;42.720;23.336;2023-07-13T09:08:43;18.50;;;8.73;;
5295;SDS011;2670;42.720;23.336;2023-07-13T09:11:22;24.80;;;9.67;;
5295;SDS011;2670;42.720;23.336;2023-07-13T09:13:57;16.50;;;9.03;;
5295;SDS011;2670;42.720;23.336;2023-07-13T09:16:29;14.03;;;9.73;;
5295;SDS011;2670;42.720;23.336;2023-07-13T09:19:03;18.10;;;8.60;;
5295;SDS011;2670;42.720;23.336;2023-07-13T09:21:33;18.40;;;9.43;;
5295;SDS011;2670;42.720;23.336;2023-07-13T09:26:55;12.73;;;8.33;;
5295;SDS011;2670;42.720;23.336;2023-07-13T09:29:23;13.03;;;7.77;;
5295;SDS011;2670;42.720;23.336;2023-07-13T09:31:57;11.87;;;7.37;;
5295;SDS011;2670;42.720;23.336;2023-07-13T09:34:27;14.50;;;8.07;;
5295;SDS011;2670;42.720;23.336;2023-07-13T09:36:55;11.37;;;7.97;;
5295;SDS011;2670;42.720;23.336;2023-07-13T09:39:23;17.80;;;8.63;;
5295;SDS011;2670;42.720;23.336;2023-07-13T09:41:54;14.43;;;7.90;;
5295;SDS011;2670;42.720;23.336;2023-07-13T09:44:27;9.33;;;7.60;;
5295;SDS011;2670;42.720;23.336;2023-07-13T09:46:57;21.00;;;7.30;;
5295;SDS011;2670;42.720;23.336;2023-07-13T09:49:25;14.20;;;7.20;;
5295;SDS011;2670;42.720;23.336;2023-07-13T09:51:57;15.27;;;7.47;;
5295;SDS011;2670;42.720;23.336;2023-07-13T09:54:26;12.30;;;7.27;;
5295;SDS011;2670;42.720;23.336;2023-07-13T09:56:54;12.43;;;7.70;;
5295;SDS011;2670;42.720;23.336;2023-07-13T09:59:22;11.90;;;8.23;;
5295;SDS011;2670;42.720;23.336;2023-07-13T10:01:50;8.23;;;6.20;;
5295;SDS011;2670;42.720;23.336;2023-07-13T10:04:19;12.73;;;7.40;;
5295;SDS011;2670;42.720;23.336;2023-07-13T10:06:47;21.83;;;7.87;;
5295;SDS011;2670;42.720;23.336;2023-07-13T10:09:15;15.77;;;7.37;;
5295;SDS011;2670;42.720;23.336;2023-07-13T10:11:44;12.53;;;6.63;;
5295;SDS011;2670;42.720;23.336;2023-07-13T10:14:13;10.70;;;6.10;;
5295;SDS011;2670;42.720;23.336;2023-07-13T10:16:42;13.67;;;6.30;;
5295;SDS011;2670;42.720;23.336;2023-07-13T10:19:11;7.93;;;4.50;;
5295;SDS011;2670;42.720;23.336;2023-07-13T10:21:46;14.90;;;6.30;;
5295;SDS011;2670;42.720;23.336;2023-07-13T10:24:17;8.90;;;5.50;;
5295;SDS011;2670;42.720;23.336;2023-07-13T10:26:48;11.07;;;4.43;;
5295;SDS011;2670;42.720;23.336;2023-07-13T10:29:20;15.43;;;5.80;;
5295;SDS011;2670;42.720;23.336;2023-07-13T10:31:51;5.70;;;4.27;;
5295;SDS011;2670;42.720;23.336;2023-07-13T10:34:17;6.30;;;4.27;;
5295;SDS011;2670;42.720;23.336;2023-07-13T10:36:46;9.17;;;4.27;;
5295;SDS011;2670;42.720;23.336;2023-07-13T10:39:15;13.40;;;5.27;;
5295;SDS011;2670;42.720;23.336;2023-07-13T10:41:45;10.83;;;4.70;;
5295;SDS011;2670;42.720;23.336;2023-07-13T10:44:18;6.70;;;4.90;;
5295;SDS011;2670;42.720;23.336;2023-07-13T10:46:50;6.23;;;4.60;;
5295;SDS011;2670;42.720;23.336;2023-07-13T10:49:18;7.30;;;5.25;;
5295;SDS011;2670;42.720;23.336;2023-07-13T10:51:47;12.05;;;5.55;;
5295;SDS011;2670;42.720;23.336;2023-07-13T10:54:15;5.97;;;3.67;;
5295;SDS011;2670;42.720;23.336;2023-07-13T10:56:48;7.65;;;5.13;;
5295;SDS011;2670;42.720;23.336;2023-07-13T10:59:17;7.57;;;4.50;;
5295;SDS011;2670;42.720;23.336;2023-07-13T11:01:48;23.67;;;5.28;;
5295;SDS011;2670;42.720;23.336;2023-07-13T11:04:19;5.57;;;4.32;;
5295;SDS011;2670;42.720;23.336;2023-07-13T11:06:50;11.27;;;4.70;;
5295;SDS011;2670;42.720;23.336;2023-07-13T11:09:31;9.60;;;4.55;;
5295;SDS011;2670;42.720;23.336;2023-07-13T11:12:01;7.75;;;4.55;;
5295;SDS011;2670;42.720;23.336;2023-07-13T11:14:35;4.85;;;4.32;;
5295;SDS011;2670;42.720;23.336;2023-07-13T11:20:19;7.38;;;4.60;;
5295;SDS011;2670;42.720;23.336;2023-07-13T11:22:51;6.10;;;4.10;;
5295;SDS011;2670;42.720;23.336;2023-07-13T11:25:25;6.03;;;4.50;;
5295;SDS011;2670;42.720;23.336;2023-07-13T11:28:05;9.88;;;3.95;;
5295;SDS011;2670;42.720;23.336;2023-07-13T11:30:40;8.00;;;4.40;;
5295;SDS011;2670;42.720;23.336;2023-07-13T11:33:11;7.27;;;4.83;;
5295;SDS011;2670;42.720;23.336;2023-07-13T11:35:44;9.25;;;5.30;;
5295;SDS011;2670;42.720;23.336;2023-07-13T11:38:17;13.23;;;4.70;;
5295;SDS011;2670;42.720;23.336;2023-07-13T11:40:47;12.38;;;5.85;;
5295;SDS011;2670;42.720;23.336;2023-07-13T11:43:15;10.95;;;4.95;;
5295;SDS011;2670;42.720;23.336;2023-07-13T11:45:43;7.53;;;4.55;;
5295;SDS011;2670;42.720;23.336;2023-07-13T11:48:20;7.85;;;5.10;;
5295;SDS011;2670;42.720;23.336;2023-07-13T11:50:50;10.32;;;5.05;;
5295;SDS011;2670;42.720;23.336;2023-07-13T11:53:21;8.27;;;4.95;;
5295;SDS011;2670;42.720;23.336;2023-07-13T11:55:48;6.68;;;5.15;;
5295;SDS011;2670;42.720;23.336;2023-07-13T11:58:17;6.43;;;5.13;;
5295;SDS011;2670;42.720;23.336;2023-07-13T12:00:49;19.75;;;5.80;;
5295;SDS011;2670;42.720;23.336;2023-07-13T12:03:20;12.00;;;5.15;;
5295;SDS011;2670;42.720;23.336;2023-07-13T12:05:58;12.63;;;4.63;;
5295;SDS011;2670;42.720;23.336;2023-07-13T12:08:28;8.93;;;4.88;;
5295;SDS011;2670;42.720;23.336;2023-07-13T12:10:59;8.70;;;4.90;;
5295;SDS011;2670;42.720;23.336;2023-07-13T12:13:34;10.70;;;5.38;;
5295;SDS011;2670;42.720;23.336;2023-07-13T12:16:11;8.18;;;4.68;;
5295;SDS011;2670;42.720;23.336;2023-07-13T12:18:41;8.90;;;4.60;;
5295;SDS011;2670;42.720;23.336;2023-07-13T12:21:12;9.77;;;5.57;;
5295;SDS011;2670;42.720;23.336;2023-07-13T12:23:42;11.77;;;5.25;;
5295;SDS011;2670;42.720;23.336;2023-07-13T12:26:10;7.75;;;5.47;;
5295;SDS011;2670;42.720;23.336;2023-07-13T12:28:39;10.70;;;4.70;;
5295;SDS011;2670;42.720;23.336;2023-07-13T12:31:19;9.23;;;5.30;;
5295;SDS011;2670;42.720;23.336;2023-07-13T12:33:55;37.55;;;10.38;;
5295;SDS011;2670;42.720;23.336;2023-07-13T12:36:23;8.00;;;4.90;;
5295;SDS011;2670;42.720;23.336;2023-07-13T12:38:51;5.90;;;4.68;;
5295;SDS011;2670;42.720;23.336;2023-07-13T12:41:18;7.90;;;4.90;;
5295;SDS011;2670;42.720;23.336;2023-07-13T12:43:45;5.55;;;4.00;;
5295;SDS011;2670;42.720;23.336;2023-07-13T12:46:17;6.10;;;4.18;;
5295;SDS011;2670;42.720;23.336;2023-07-13T12:48:50;7.28;;;4.10;;
5295;SDS011;2670;42.720;23.336;2023-07-13T12:51:21;11.32;;;5.25;;
5295;SDS011;2670;42.720;23.336;2023-07-13T12:53:50;6.45;;;4.05;;
5295;SDS011;2670;42.720;23.336;2023-07-13T12:56:25;10.60;;;4.95;;
5295;SDS011;2670;42.720;23.336;2023-07-13T12:58:56;7.18;;;4.45;;
5295;SDS011;2670;42.720;23.336;2023-07-13T13:01:25;9.88;;;4.10;;
5295;SDS011;2670;42.720;23.336;2023-07-13T13:03:54;7.13;;;4.15;;
5295;SDS011;2670;42.720;23.336;2023-07-13T13:06:23;8.77;;;4.68;;
5295;SDS011;2670;42.720;23.336;2023-07-13T13:08:53;6.50;;;4.65;;
5295;SDS011;2670;42.720;23.336;2023-07-13T13:11:21;8.05;;;4.15;;
5295;SDS011;2670;42.720;23.336;2023-07-13T13:13:51;6.60;;;4.70;;
5295;SDS011;2670;42.720;23.336;2023-07-13T13:16:20;11.63;;;4.18;;
5295;SDS011;2670;42.720;23.336;2023-07-13T13:18:49;11.93;;;5.97;;
5295;SDS011;2670;42.720;23.336;2023-07-13T13:21:17;9.70;;;4.95;;
5295;SDS011;2670;42.720;23.336;2023-07-13T13:23:45;8.70;;;4.40;;
5295;SDS011;2670;42.720;23.336;2023-07-13T13:26:14;19.33;;;4.32;;
5295;SDS011;2670;42.720;23.336;2023-07-13T13:28:42;14.20;;;4.60;;
5295;SDS011;2670;42.720;23.336;2023-07-13T13:31:10;8.80;;;4.32;;
5295;SDS011;2670;42.720;23.336;2023-07-13T13:33:38;6.28;;;4.22;;
5295;SDS011;2670;42.720;23.336;2023-07-13T13:36:10;12.43;;;3.88;;
5295;SDS011;2670;42.720;23.336;2023-07-13T13:38:41;8.52;;;4.28;;
5295;SDS011;2670;42.720;23.336;2023-07-13T13:41:09;11.63;;;5.00;;
5295;SDS011;2670;42.720;23.336;2023-07-13T13:43:37;8.90;;;4.78;;
5295;SDS011;2670;42.720;23.336;2023-07-13T13:46:09;8.85;;;4.40;;
5295;SDS011;2670;42.720;23.336;2023-07-13T13:48:40;13.60;;;4.60;;
5295;SDS011;2670;42.720;23.336;2023-07-13T13:51:11;9.32;;;4.68;;
5295;SDS011;2670;42.720;23.336;2023-07-13T13:53:41;7.30;;;4.80;;
5295;SDS011;2670;42.720;23.336;2023-07-13T13:56:08;11.05;;;4.47;;
5295;SDS011;2670;42.720;23.336;2023-07-13T13:58:35;6.68;;;4.22;;
5295;SDS011;2670;42.720;23.336;2023-07-13T14:01:03;9.38;;;4.35;;
5295;SDS011;2670;42.720;23.336;2023-07-13T14:03:33;7.82;;;4.22;;
5295;SDS011;2670;42.720;23.336;2023-07-13T14:06:00;10.73;;;4.50;;
5295;SDS011;2670;42.720;23.336;2023-07-13T14:08:27;6.95;;;4.55;;
5295;SDS011;2670;42.720;23.336;2023-07-13T14:10:54;8.73;;;4.60;;
5295;SDS011;2670;42.720;23.336;2023-07-13T14:13:24;14.88;;;4.22;;
5295;SDS011;2670;42.720;23.336;2023-07-13T14:15:53;14.88;;;4.40;;
5295;SDS011;2670;42.720;23.336;2023-07-13T14:18:22;13.00;;;4.47;;
5295;SDS011;2670;42.720;23.336;2023-07-13T14:20:49;12.98;;;4.85;;
5295;SDS011;2670;42.720;23.336;2023-07-13T14:23:17;9.07;;;4.05;;
5295;SDS011;2670;42.720;23.336;2023-07-13T14:25:44;7.32;;;4.07;;
5295;SDS011;2670;42.720;23.336;2023-07-13T14:28:17;9.77;;;5.00;;
5295;SDS011;2670;42.720;23.336;2023-07-13T14:30:47;8.45;;;4.72;;
5295;SDS011;2670;42.720;23.336;2023-07-13T14:33:14;6.68;;;4.22;;
5295;SDS011;2670;42.720;23.336;2023-07-13T14:35:42;8.60;;;4.60;;
5295;SDS011;2670;42.720;23.336;2023-07-13T14:38:10;19.42;;;11.68;;
5295;SDS011;2670;42.720;23.336;2023-07-13T14:40:39;16.83;;;9.13;;
5295;SDS011;2670;42.720;23.336;2023-07-13T14:43:08;7.72;;;4.93;;
5295;SDS011;2670;42.720;23.336;2023-07-13T14:45:37;14.57;;;8.65;;
5295;SDS011;2670;42.720;23.336;2023-07-13T14:48:10;9.55;;;5.20;;
5295;SDS011;2670;42.720;23.336;2023-07-13T14:50:42;12.43;;;7.60;;
5295;SDS011;2670;42.720;23.336;2023-07-13T14:53:10;7.88;;;4.70;;
5295;SDS011;2670;42.720;23.336;2023-07-13T14:55:37;11.35;;;4.40;;
5295;SDS011;2670;42.720;23.336;2023-07-13T14:58:05;10.18;;;4.47;;
5295;SDS011;2670;42.720;23.336;2023-07-13T15:00:32;8.15;;;4.63;;
5295;SDS011;2670;42.720;23.336;2023-07-13T15:02:59;7.80;;;4.75;;
5295;SDS011;2670;42.720;23.336;2023-07-13T15:05:28;7.07;;;4.20;;
5295;SDS011;2670;42.720;23.336;2023-07-13T15:07:58;9.70;;;4.68;;